York Harbor, Maine
Current Conditions -  °F | °C
As of 12:58 AM on Sunday 21 Dec 2014 (Local Time) from KPSM Reporting Station
Broken Clouds Broken Clouds  
Wind Chill: 17°   Ceiling: 5000
Heat Index: 25°   Visibility: 10mi
Dew Point: 21°   Wind: 8mph
Humidity: 85%   Direction: 340°NNW
Pressure: 30.3"   Gusts: NA
Location:  43.14°N, 70.65°W
Report Text: KPSM 210558Z 34007KT 10SM BKN050 BKN080 M04/M06 A3030 RMK AO2A SLP265 T10371059 11004 21037 57004
Loading
Personal Weather Stations






























Interactive Weather Map New forecast layout! Learn more

10-Day Weather Forecast

Advertisements
Track Severe Weather on mobile